Terminal Aerodrome Forecast
Issued by NWS Mt. Holly, NJ

Home | Current Version | Previous Version | Text Only | Print | Product List | Glossary On
Versions: 1 2 3 4 5 6 7 8 9 10 11 12 13 14 15 16 17 18 19 20 21
000
FTUS41 KPHI 011120
TAFILG
TAF
KILG 011120Z 0112/0212 26006KT P6SM SCT050 BKN100
     FM011600 27010G18KT P6SM BKN050
     FM012300 28006KT P6SM SCT050
     FM020800 34003KT 5SM BR SCT250=

USA.gov is the U.S. government's official web portal to all federal, state and local government web resources and services.